sensor_id;sensor_type;location;lat;lon;timestamp;pressure;altitude;pressure_sealevel;temperature;humidity
12913;BME280;6524;51.368;11.984;2022-09-06T04:02:01;100583.72;;;20.05;77.24
12913;BME280;6524;51.368;11.984;2022-09-06T04:07:02;100588.09;;;19.93;77.12
12913;BME280;6524;51.368;11.984;2022-09-06T04:12:02;100588.59;;;19.85;77.42
12913;BME280;6524;51.368;11.984;2022-09-06T04:17:03;100597.50;;;19.84;77.23
12913;BME280;6524;51.368;11.984;2022-09-06T04:22:03;100591.44;;;19.82;77.70
12913;BME280;6524;51.368;11.984;2022-09-06T04:27:04;100595.78;;;19.83;77.24
12913;BME280;6524;51.368;11.984;2022-09-06T04:32:04;100589.22;;;19.89;77.13
12913;BME280;6524;51.368;11.984;2022-09-06T04:37:05;100602.56;;;19.75;76.37
12913;BME280;6524;51.368;11.984;2022-09-06T04:42:05;100596.16;;;19.64;76.05
12913;BME280;6524;51.368;11.984;2022-09-06T04:47:12;100591.47;;;19.55;76.51
12913;BME280;6524;51.368;11.984;2022-09-06T04:52:14;100594.66;;;19.60;76.21
12913;BME280;6524;51.368;11.984;2022-09-06T04:57:15;100592.59;;;19.66;75.78
12913;BME280;6524;51.368;11.984;2022-09-06T05:02:15;100590.53;;;19.56;76.39
12913;BME280;6524;51.368;11.984;2022-09-06T05:07:15;100589.38;;;19.60;76.29
12913;BME280;6524;51.368;11.984;2022-09-06T05:12:16;100590.41;;;19.58;78.51
12913;BME280;6524;51.368;11.984;2022-09-06T05:17:16;100593.47;;;19.52;79.97
12913;BME280;6524;51.368;11.984;2022-09-06T05:22:17;100602.97;;;19.69;81.45
12913;BME280;6524;51.368;11.984;2022-09-06T05:27:17;100596.03;;;19.26;80.97
12913;BME280;6524;51.368;11.984;2022-09-06T05:32:17;100574.50;;;19.45;81.56
12913;BME280;6524;51.368;11.984;2022-09-06T05:37:18;100581.06;;;19.52;81.29
12913;BME280;6524;51.368;11.984;2022-09-06T05:42:18;100583.59;;;19.68;82.24
12913;BME280;6524;51.368;11.984;2022-09-06T05:47:18;100587.25;;;19.53;82.09
12913;BME280;6524;51.368;11.984;2022-09-06T05:52:19;100579.59;;;19.48;81.14
12913;BME280;6524;51.368;11.984;2022-09-06T05:57:19;100583.31;;;19.58;81.82
12913;BME280;6524;51.368;11.984;2022-09-06T06:02:21;100590.31;;;19.59;80.78
12913;BME280;6524;51.368;11.984;2022-09-06T06:07:21;100592.63;;;19.51;81.23
12913;BME280;6524;51.368;11.984;2022-09-06T06:12:21;100584.06;;;19.60;81.60
12913;BME280;6524;51.368;11.984;2022-09-06T06:17:22;100591.78;;;19.78;80.77
12913;BME280;6524;51.368;11.984;2022-09-06T06:22:22;100597.28;;;20.00;79.12
12913;BME280;6524;51.368;11.984;2022-09-06T06:27:23;100600.56;;;20.04;78.59
12913;BME280;6524;51.368;11.984;2022-09-06T06:32:23;100593.03;;;20.10;77.74
12913;BME280;6524;51.368;11.984;2022-09-06T06:37:23;100594.94;;;20.47;76.86
12913;BME280;6524;51.368;11.984;2022-09-06T06:42:24;100610.47;;;20.77;75.86
12913;BME280;6524;51.368;11.984;2022-09-06T06:47:24;100612.69;;;20.83;74.04
12913;BME280;6524;51.368;11.984;2022-09-06T06:52:25;100604.56;;;21.10;71.87
12913;BME280;6524;51.368;11.984;2022-09-06T06:57:25;100598.53;;;21.32;72.13
12913;BME280;6524;51.368;11.984;2022-09-06T07:02:26;100589.16;;;21.39;71.10
12913;BME280;6524;51.368;11.984;2022-09-06T07:07:26;100603.78;;;21.45;70.77
12913;BME280;6524;51.368;11.984;2022-09-06T07:12:27;100601.66;;;21.50;70.32
12913;BME280;6524;51.368;11.984;2022-09-06T07:17:31;100594.56;;;21.62;69.76
12913;BME280;6524;51.368;11.984;2022-09-06T07:22:32;100598.63;;;21.55;70.21
12913;BME280;6524;51.368;11.984;2022-09-06T07:27:32;100599.16;;;21.71;69.88
12913;BME280;6524;51.368;11.984;2022-09-06T07:32:33;100607.63;;;21.76;69.25
12913;BME280;6524;51.368;11.984;2022-09-06T07:37:37;100607.25;;;21.69;68.62
12913;BME280;6524;51.368;11.984;2022-09-06T07:42:38;100600.16;;;21.70;69.09
12913;BME280;6524;51.368;11.984;2022-09-06T07:47:38;100604.00;;;21.77;68.85
12913;BME280;6524;51.368;11.984;2022-09-06T07:52:42;100605.50;;;21.81;68.55
12913;BME280;6524;51.368;11.984;2022-09-06T07:57:43;100608.34;;;22.25;66.42
12913;BME280;6524;51.368;11.984;2022-09-06T08:02:43;100615.13;;;22.74;64.36
12913;BME280;6524;51.368;11.984;2022-09-06T08:07:43;100609.59;;;24.48;59.78
12913;BME280;6524;51.368;11.984;2022-09-06T08:12:44;100614.38;;;27.84;49.22
12913;BME280;6524;51.368;11.984;2022-09-06T08:17:47;100612.66;;;27.39;49.36
12913;BME280;6524;51.368;11.984;2022-09-06T08:22:47;100614.50;;;26.19;52.03
12913;BME280;6524;51.368;11.984;2022-09-06T08:27:48;100607.56;;;25.40;54.94
12913;BME280;6524;51.368;11.984;2022-09-06T08:32:48;100611.75;;;25.13;56.12
12913;BME280;6524;51.368;11.984;2022-09-06T08:37:50;100595.41;;;26.41;52.59
12913;BME280;6524;51.368;11.984;2022-09-06T08:42:51;100600.78;;;28.30;48.54
12913;BME280;6524;51.368;11.984;2022-09-06T08:47:58;100596.66;;;30.50;43.06
12913;BME280;6524;51.368;11.984;2022-09-06T08:53:03;100596.41;;;30.67;41.89
12913;BME280;6524;51.368;11.984;2022-09-06T09:03:34;100596.66;;;35.03;34.42
12913;BME280;6524;51.368;11.984;2022-09-06T09:14:04;100593.66;;;38.09;29.58
12913;BME280;6524;51.368;11.984;2022-09-06T09:19:07;100591.09;;;37.46;29.91
12913;BME280;6524;51.368;11.984;2022-09-06T09:24:10;100572.06;;;38.08;29.52
12913;BME280;6524;51.368;11.984;2022-09-06T09:29:13;100573.31;;;38.79;28.25
12913;BME280;6524;51.368;11.984;2022-09-06T09:34:33;100562.97;;;39.53;27.15
12913;BME280;6524;51.368;11.984;2022-09-06T09:39:36;100560.22;;;39.29;27.54
12913;BME280;6524;51.368;11.984;2022-09-06T09:44:41;100542.84;;;39.77;27.17
12913;BME280;6524;51.368;11.984;2022-09-06T09:49:42;100533.06;;;39.35;27.07
12913;BME280;6524;51.368;11.984;2022-09-06T09:54:44;100521.16;;;37.90;29.13
12913;BME280;6524;51.368;11.984;2022-09-06T09:59:50;100520.16;;;36.39;32.27
12913;BME280;6524;51.368;11.984;2022-09-06T10:04:58;100517.75;;;36.63;31.52
12913;BME280;6524;51.368;11.984;2022-09-06T10:10:05;100521.31;;;38.13;29.38
12913;BME280;6524;51.368;11.984;2022-09-06T10:15:11;100525.59;;;37.16;30.35
12913;BME280;6524;51.368;11.984;2022-09-06T10:20:41;100528.69;;;36.49;31.21
12913;BME280;6524;51.368;11.984;2022-09-06T10:25:46;100517.03;;;35.71;32.91
12913;BME280;6524;51.368;11.984;2022-09-06T10:42:25;100524.84;;;30.81;41.18
12913;BME280;6524;51.368;11.984;2022-09-06T10:47:36;100523.09;;;29.46;44.78
12913;BME280;6524;51.368;11.984;2022-09-06T10:52:43;100537.09;;;28.82;45.92
12913;BME280;6524;51.368;11.984;2022-09-06T10:57:56;100547.22;;;28.12;47.49
12913;BME280;6524;51.368;11.984;2022-09-06T11:03:07;100559.69;;;28.29;47.78
12913;BME280;6524;51.368;11.984;2022-09-06T11:08:16;100555.31;;;28.28;47.59
12913;BME280;6524;51.368;11.984;2022-09-06T11:13:29;100563.06;;;28.31;48.04
12913;BME280;6524;51.368;11.984;2022-09-06T11:18:44;100557.19;;;28.28;48.29
12913;BME280;6524;51.368;11.984;2022-09-06T11:24:10;100548.72;;;27.80;49.58
12913;BME280;6524;51.368;11.984;2022-09-06T11:29:23;100564.59;;;28.08;48.98
12913;BME280;6524;51.368;11.984;2022-09-06T11:34:26;100553.91;;;27.64;50.88
12913;BME280;6524;51.368;11.984;2022-09-06T11:39:28;100550.59;;;27.70;50.58
12913;BME280;6524;51.368;11.984;2022-09-06T11:49:56;100536.97;;;28.42;49.48
12913;BME280;6524;51.368;11.984;2022-09-06T11:54:57;100539.81;;;28.14;51.15
12913;BME280;6524;51.368;11.984;2022-09-06T11:59:59;100524.34;;;28.34;51.02
12913;BME280;6524;51.368;11.984;2022-09-06T12:15:44;100506.97;;;27.52;53.36
12913;BME280;6524;51.368;11.984;2022-09-06T12:25:53;100487.50;;;27.76;51.70
12913;BME280;6524;51.368;11.984;2022-09-06T12:30:54;100476.41;;;27.44;51.52
12913;BME280;6524;51.368;11.984;2022-09-06T12:36:12;100475.09;;;27.75;51.71
12913;BME280;6524;51.368;11.984;2022-09-06T12:41:13;100465.13;;;27.59;52.33
12913;BME280;6524;51.368;11.984;2022-09-06T12:46:13;100465.41;;;28.08;51.00
12913;BME280;6524;51.368;11.984;2022-09-06T12:51:19;100455.41;;;29.26;46.92
12913;BME280;6524;51.368;11.984;2022-09-06T12:56:21;100448.97;;;30.15;43.85
12913;BME280;6524;51.368;11.984;2022-09-06T13:01:26;100443.97;;;31.27;41.51
12913;BME280;6524;51.368;11.984;2022-09-06T13:06:31;100446.56;;;31.73;40.12
12913;BME280;6524;51.368;11.984;2022-09-06T13:11:37;100443.63;;;32.34;38.73
12913;BME280;6524;51.368;11.984;2022-09-06T13:16:44;100437.31;;;31.91;38.73
12913;BME280;6524;51.368;11.984;2022-09-06T13:21:45;100438.94;;;32.07;37.82
12913;BME280;6524;51.368;11.984;2022-09-06T13:26:46;100429.25;;;32.12;37.40
12913;BME280;6524;51.368;11.984;2022-09-06T13:31:48;100434.41;;;31.92;37.47
12913;BME280;6524;51.368;11.984;2022-09-06T13:36:52;100430.78;;;32.36;36.78
12913;BME280;6524;51.368;11.984;2022-09-06T13:42:00;100425.03;;;32.82;36.38
12913;BME280;6524;51.368;11.984;2022-09-06T13:47:01;100419.59;;;32.39;37.14
12913;BME280;6524;51.368;11.984;2022-09-06T13:52:03;100429.88;;;32.29;37.02
12913;BME280;6524;51.368;11.984;2022-09-06T13:57:04;100430.88;;;31.47;37.66
12913;BME280;6524;51.368;11.984;2022-09-06T14:02:06;100435.38;;;31.32;36.04
12913;BME280;6524;51.368;11.984;2022-09-06T14:07:08;100446.47;;;31.96;36.24
12913;BME280;6524;51.368;11.984;2022-09-06T14:12:09;100449.34;;;32.61;34.76
12913;BME280;6524;51.368;11.984;2022-09-06T14:17:10;100453.44;;;32.06;34.43
12913;BME280;6524;51.368;11.984;2022-09-06T14:22:11;100448.88;;;31.62;34.61
12913;BME280;6524;51.368;11.984;2022-09-06T14:27:11;100441.91;;;31.67;35.54
12913;BME280;6524;51.368;11.984;2022-09-06T14:32:12;100442.53;;;31.02;36.32
12913;BME280;6524;51.368;11.984;2022-09-06T14:37:12;100437.28;;;30.62;36.97
12913;BME280;6524;51.368;11.984;2022-09-06T14:42:13;100428.75;;;29.88;39.62
12913;BME280;6524;51.368;11.984;2022-09-06T14:47:13;100425.69;;;28.95;41.51
12913;BME280;6524;51.368;11.984;2022-09-06T14:52:13;100429.91;;;29.14;40.99
12913;BME280;6524;51.368;11.984;2022-09-06T14:57:14;100429.38;;;29.35;40.61
12913;BME280;6524;51.368;11.984;2022-09-06T15:02:14;100423.97;;;29.59;40.11
12913;BME280;6524;51.368;11.984;2022-09-06T15:07:15;100418.94;;;29.56;39.45
12913;BME280;6524;51.368;11.984;2022-09-06T15:12:16;100426.13;;;29.64;38.86
12913;BME280;6524;51.368;11.984;2022-09-06T15:17:16;100420.34;;;29.27;38.63
12913;BME280;6524;51.368;11.984;2022-09-06T15:22:19;100422.34;;;29.17;38.77
12913;BME280;6524;51.368;11.984;2022-09-06T15:27:20;100411.94;;;28.90;38.33
12913;BME280;6524;51.368;11.984;2022-09-06T15:32:20;100408.22;;;28.42;39.54
12913;BME280;6524;51.368;11.984;2022-09-06T15:37:24;100404.94;;;27.71;40.94
12913;BME280;6524;51.368;11.984;2022-09-06T15:42:24;100400.16;;;27.83;41.93
12913;BME280;6524;51.368;11.984;2022-09-06T15:47:25;100400.63;;;27.78;43.97
12913;BME280;6524;51.368;11.984;2022-09-06T15:52:25;100390.78;;;27.61;44.65
12913;BME280;6524;51.368;11.984;2022-09-06T15:57:25;100369.47;;;27.43;46.89
12913;BME280;6524;51.368;11.984;2022-09-06T16:02:28;100364.56;;;27.12;49.43
12913;BME280;6524;51.368;11.984;2022-09-06T16:07:29;100351.91;;;26.96;50.52
12913;BME280;6524;51.368;11.984;2022-09-06T16:12:29;100358.81;;;26.81;52.56
12913;BME280;6524;51.368;11.984;2022-09-06T16:17:30;100354.41;;;26.72;53.85
12913;BME280;6524;51.368;11.984;2022-09-06T16:22:31;100352.94;;;26.42;55.11
12913;BME280;6524;51.368;11.984;2022-09-06T16:27:32;100345.69;;;26.34;55.48
12913;BME280;6524;51.368;11.984;2022-09-06T16:32:33;100347.50;;;26.16;56.32
12913;BME280;6524;51.368;11.984;2022-09-06T16:37:34;100348.56;;;26.05;56.98
12913;BME280;6524;51.368;11.984;2022-09-06T16:42:35;100335.28;;;25.95;58.47
12913;BME280;6524;51.368;11.984;2022-09-06T16:47:39;100334.19;;;25.88;59.23
12913;BME280;6524;51.368;11.984;2022-09-06T16:52:39;100339.81;;;25.85;59.43
12913;BME280;6524;51.368;11.984;2022-09-06T16:57:42;100331.75;;;25.67;59.84
12913;BME280;6524;51.368;11.984;2022-09-06T17:02:44;100324.75;;;25.56;60.49
12913;BME280;6524;51.368;11.984;2022-09-06T17:07:46;100329.69;;;25.24;61.97
12913;BME280;6524;51.368;11.984;2022-09-06T17:12:47;100331.94;;;25.19;62.92
12913;BME280;6524;51.368;11.984;2022-09-06T17:17:47;100338.03;;;25.01;64.40
12913;BME280;6524;51.368;11.984;2022-09-06T17:22:50;100331.75;;;24.83;65.79
12913;BME280;6524;51.368;11.984;2022-09-06T17:27:51;100331.47;;;24.76;66.13
12913;BME280;6524;51.368;11.984;2022-09-06T17:32:54;100329.34;;;24.80;65.71
12913;BME280;6524;51.368;11.984;2022-09-06T17:37:54;100325.00;;;24.88;64.85
12913;BME280;6524;51.368;11.984;2022-09-06T17:42:54;100325.00;;;24.88;65.07
12913;BME280;6524;51.368;11.984;2022-09-06T17:47:55;100319.38;;;24.82;65.02
12913;BME280;6524;51.368;11.984;2022-09-06T17:52:56;100321.50;;;24.68;65.70
12913;BME280;6524;51.368;11.984;2022-09-06T17:57:57;100328.69;;;24.58;66.75
12913;BME280;6524;51.368;11.984;2022-09-06T18:02:58;100326.13;;;24.37;67.56
12913;BME280;6524;51.368;11.984;2022-09-06T18:07:58;100334.00;;;24.39;67.65
12913;BME280;6524;51.368;11.984;2022-09-06T18:12:59;100325.84;;;24.21;68.45
12913;BME280;6524;51.368;11.984;2022-09-06T18:17:59;100333.00;;;24.20;68.64
12913;BME280;6524;51.368;11.984;2022-09-06T18:23:00;100339.25;;;24.00;68.96
12913;BME280;6524;51.368;11.984;2022-09-06T18:28:04;100341.94;;;24.00;69.08
12913;BME280;6524;51.368;11.984;2022-09-06T18:33:05;100350.16;;;23.87;69.83
12913;BME280;6524;51.368;11.984;2022-09-06T18:38:06;100345.69;;;23.88;69.69
12913;BME280;6524;51.368;11.984;2022-09-06T18:43:06;100346.53;;;23.78;69.62
12913;BME280;6524;51.368;11.984;2022-09-06T18:48:07;100346.13;;;23.62;70.19
12913;BME280;6524;51.368;11.984;2022-09-06T18:53:08;100351.13;;;23.46;70.54
12913;BME280;6524;51.368;11.984;2022-09-06T18:58:09;100350.06;;;23.58;70.90
12913;BME280;6524;51.368;11.984;2022-09-06T19:03:10;100354.06;;;23.43;71.11
12913;BME280;6524;51.368;11.984;2022-09-06T19:08:11;100352.19;;;23.33;71.32
12913;BME280;6524;51.368;11.984;2022-09-06T19:13:11;100351.09;;;23.36;71.53
12913;BME280;6524;51.368;11.984;2022-09-06T19:18:13;100334.31;;;22.94;73.70
12913;BME280;6524;51.368;11.984;2022-09-06T19:23:13;100341.25;;;23.06;73.99
12913;BME280;6524;51.368;11.984;2022-09-06T19:28:15;100341.00;;;23.09;73.98
12913;BME280;6524;51.368;11.984;2022-09-06T19:33:15;100337.72;;;22.96;75.45
12913;BME280;6524;51.368;11.984;2022-09-06T19:38:17;100333.28;;;22.85;76.61
12913;BME280;6524;51.368;11.984;2022-09-06T19:43:17;100330.09;;;22.70;77.13
12913;BME280;6524;51.368;11.984;2022-09-06T19:48:21;100323.38;;;22.66;78.08
12913;BME280;6524;51.368;11.984;2022-09-06T19:53:21;100316.53;;;22.73;77.56
12913;BME280;6524;51.368;11.984;2022-09-06T19:58:22;100298.50;;;22.56;77.99
12913;BME280;6524;51.368;11.984;2022-09-06T20:03:27;100302.16;;;22.55;78.71
12913;BME280;6524;51.368;11.984;2022-09-06T20:08:27;100298.63;;;22.33;78.71
12913;BME280;6524;51.368;11.984;2022-09-06T20:13:27;100289.41;;;22.37;78.52
12913;BME280;6524;51.368;11.984;2022-09-06T20:18:28;100293.44;;;22.32;78.99
12913;BME280;6524;51.368;11.984;2022-09-06T20:23:30;100294.22;;;22.11;79.59
12913;BME280;6524;51.368;11.984;2022-09-06T20:28:32;100303.28;;;22.20;79.08
12913;BME280;6524;51.368;11.984;2022-09-06T20:33:33;100305.84;;;21.99;79.95
12913;BME280;6524;51.368;11.984;2022-09-06T20:38:39;100313.53;;;22.13;79.67
12913;BME280;6524;51.368;11.984;2022-09-06T20:43:41;100307.16;;;21.93;80.24
12913;BME280;6524;51.368;11.984;2022-09-06T20:48:42;100310.00;;;21.69;80.99
12913;BME280;6524;51.368;11.984;2022-09-06T20:53:51;100307.47;;;21.68;81.06
12913;BME280;6524;51.368;11.984;2022-09-06T20:58:57;100299.28;;;21.60;81.29
12913;BME280;6524;51.368;11.984;2022-09-06T21:04:01;100289.41;;;21.51;81.16
12913;BME280;6524;51.368;11.984;2022-09-06T21:09:03;100281.06;;;21.33;82.34
12913;BME280;6524;51.368;11.984;2022-09-06T21:14:05;100282.66;;;21.46;80.81
12913;BME280;6524;51.368;11.984;2022-09-06T21:19:07;100279.75;;;21.61;80.80
12913;BME280;6524;51.368;11.984;2022-09-06T21:24:09;100281.56;;;21.49;80.25
12913;BME280;6524;51.368;11.984;2022-09-06T21:29:10;100280.09;;;21.34;80.60
12913;BME280;6524;51.368;11.984;2022-09-06T21:34:11;100282.69;;;21.35;80.90
12913;BME280;6524;51.368;11.984;2022-09-06T21:39:12;100289.88;;;21.22;81.28
12913;BME280;6524;51.368;11.984;2022-09-06T21:44:13;100280.72;;;21.03;82.22
12913;BME280;6524;51.368;11.984;2022-09-06T21:49:13;100283.59;;;21.12;81.71
12913;BME280;6524;51.368;11.984;2022-09-06T21:54:14;100280.72;;;21.03;82.15
12913;BME280;6524;51.368;11.984;2022-09-06T21:59:14;100280.47;;;20.84;82.62
12913;BME280;6524;51.368;11.984;2022-09-06T22:04:14;100275.00;;;20.74;83.41
12913;BME280;6524;51.368;11.984;2022-09-06T22:09:15;100266.84;;;20.89;83.06
12913;BME280;6524;51.368;11.984;2022-09-06T22:14:15;100269.59;;;20.76;83.62
12913;BME280;6524;51.368;11.984;2022-09-06T22:19:15;100269.00;;;20.72;83.78
12913;BME280;6524;51.368;11.984;2022-09-06T22:24:16;100274.16;;;20.74;82.60
12913;BME280;6524;51.368;11.984;2022-09-06T22:29:16;100282.25;;;20.37;84.59
12913;BME280;6524;51.368;11.984;2022-09-06T22:34:16;100269.41;;;20.20;85.28
12913;BME280;6524;51.368;11.984;2022-09-06T22:39:17;100256.56;;;20.02;87.42
12913;BME280;6524;51.368;11.984;2022-09-06T22:44:18;100254.81;;;20.14;86.38
12913;BME280;6524;51.368;11.984;2022-09-06T22:49:19;100253.53;;;20.20;84.63
12913;BME280;6524;51.368;11.984;2022-09-06T22:54:19;100245.13;;;20.02;86.58
12913;BME280;6524;51.368;11.984;2022-09-06T22:59:19;100248.53;;;20.04;86.49
12913;BME280;6524;51.368;11.984;2022-09-06T23:04:20;100249.13;;;20.07;85.53
12913;BME280;6524;51.368;11.984;2022-09-06T23:09:20;100238.00;;;19.91;86.28
12913;BME280;6524;51.368;11.984;2022-09-06T23:14:20;100244.34;;;19.64;88.50
12913;BME280;6524;51.368;11.984;2022-09-06T23:19:21;100242.56;;;19.65;88.42
12913;BME280;6524;51.368;11.984;2022-09-06T23:24:21;100226.47;;;19.55;89.73
12913;BME280;6524;51.368;11.984;2022-09-06T23:29:22;100223.25;;;19.76;89.30
12913;BME280;6524;51.368;11.984;2022-09-06T23:34:22;100218.81;;;19.63;90.32
12913;BME280;6524;51.368;11.984;2022-09-06T23:39:22;100210.69;;;19.67;89.80
12913;BME280;6524;51.368;11.984;2022-09-06T23:44:23;100204.06;;;19.48;91.26
12913;BME280;6524;51.368;11.984;2022-09-06T23:49:23;100202.94;;;19.63;90.70
12913;BME280;6524;51.368;11.984;2022-09-06T23:54:24;100203.00;;;19.51;91.36
12913;BME280;6524;51.368;11.984;2022-09-06T23:59:24;100189.25;;;19.46;91.84
